Time;durP1;ratioP1;P1;durP2;ratioP2;P2;SDS_P1;SDS_P2;PMS_P1;PMS_P2;Temp;Humidity;BMP_temperature;BMP_pressure;BME280_temperature;BME280_humidity;BME280_pressure;Samples;Min_cycle;Max_cycle;Signal;HPM_P1;HPM_P2
2023/12/07 00:01:44;;;;;;;17.00;7.75;;;;;;;-5.56;66.98;101336.84;4948161;29;20043;-55
2023/12/07 00:04:09;;;;;;;18.27;7.23;;;;;;;-5.56;66.61;101347.00;4920571;28;20047;-56
2023/12/07 00:06:35;;;;;;;16.90;7.40;;;;;;;-5.85;66.13;101303.91;4935724;29;20519;-56
2023/12/07 00:09:02;;;;;;;23.55;7.40;;;;;;;-5.69;66.53;101335.28;4947089;28;20050;-59
2023/12/07 00:11:28;;;;;;;19.63;7.00;;;;;;;-6.02;66.16;101296.25;4934586;29;20130;-56
2023/12/07 00:13:54;;;;;;;19.27;8.20;;;;;;;-5.76;66.19;101348.41;4946790;28;20096;-57
2023/12/07 00:16:20;;;;;;;17.85;6.32;;;;;;;-5.82;66.15;101340.44;4949369;28;20074;-57
2023/12/07 00:18:46;;;;;;;24.10;7.70;;;;;;;-5.75;66.19;101339.09;4948462;28;20495;-55
2023/12/07 00:21:12;;;;;;;24.73;7.78;;;;;;;-5.76;66.75;101339.91;4932244;29;20069;-57
2023/12/07 00:23:38;;;;;;;16.80;5.93;;;;;;;-5.83;66.22;101342.88;4935281;29;20046;-56
2023/12/07 00:26:04;;;;;;;17.70;7.95;;;;;;;-5.86;66.06;101352.84;4936656;29;20046;-53
2023/12/07 00:28:30;;;;;;;20.23;7.95;;;;;;;-5.84;66.60;101346.19;4948448;29;20134;-55
2023/12/07 00:30:56;;;;;;;20.50;7.43;;;;;;;-5.88;66.30;101349.38;4947425;29;20687;-55
2023/12/07 00:33:24;;;;;;;19.35;6.53;;;;;;;-5.97;65.98;101336.19;4933964;29;20130;-56
2023/12/07 00:35:50;;;;;;;18.75;7.18;;;;;;;-6.03;66.10;101346.81;4949568;28;20060;-57
2023/12/07 00:38:16;;;;;;;22.73;7.90;;;;;;;-6.03;66.39;101351.88;4947758;29;20094;-53
2023/12/07 00:40:41;;;;;;;16.85;7.15;;;;;;;-6.09;66.54;101354.94;4931912;28;20043;-57
2023/12/07 00:43:07;;;;;;;17.55;7.22;;;;;;;-6.09;66.04;101354.06;4936443;29;20051;-54
2023/12/07 00:45:33;;;;;;;23.23;7.22;;;;;;;-6.37;66.34;101316.13;4935293;29;20078;-56
2023/12/07 00:48:00;;;;;;;19.52;7.80;;;;;;;-6.46;66.58;101306.34;4949320;29;20082;-55
2023/12/07 00:50:26;;;;;;;19.58;6.13;;;;;;;-6.47;66.29;101306.25;4953752;28;20031;-55
2023/12/07 00:52:52;;;;;;;14.43;6.80;;;;;;;-6.47;65.98;101308.78;4925925;29;20043;-56
2023/12/07 00:55:18;;;;;;;20.02;7.10;;;;;;;-6.22;66.49;101359.16;4948172;29;20042;-54
2023/12/07 00:57:44;;;;;;;17.08;6.47;;;;;;;-6.47;66.72;101319.78;4918978;29;20035;-56
2023/12/07 01:00:11;;;;;;;18.92;7.55;;;;;;;-6.29;66.26;101362.13;4946825;28;20074;-57
2023/12/07 01:02:37;;;;;;;16.10;6.70;;;;;;;-6.30;66.54;101365.44;4931397;29;20050;-57
2023/12/07 01:05:03;;;;;;;21.38;6.63;;;;;;;-6.31;66.47;101361.16;4936861;29;20083;-55
2023/12/07 01:07:30;;;;;;;19.98;7.10;;;;;;;-6.34;66.62;101366.94;4933331;29;20130;-52
2023/12/07 01:09:56;;;;;;;19.27;7.43;;;;;;;-6.34;66.45;101361.00;4948075;28;20126;-55
2023/12/07 01:12:22;;;;;;;18.08;7.28;;;;;;;-6.37;66.69;101364.19;4946180;29;20462;-56
2023/12/07 01:14:48;;;;;;;15.45;6.72;;;;;;;-6.43;66.79;101362.16;4928775;29;20422;-55
2023/12/07 01:17:14;;;;;;;10.68;5.18;;;;;;;-6.45;66.66;101363.75;4947108;29;20094;-54
2023/12/07 01:19:40;;;;;;;18.20;6.03;;;;;;;-6.73;66.69;101317.34;4931443;28;20036;-56
2023/12/07 01:22:06;;;;;;;21.05;6.70;;;;;;;-6.45;66.68;101365.41;4938504;29;20604;-57
2023/12/07 01:24:32;;;;;;;15.40;7.18;;;;;;;-6.43;66.80;101369.75;4950150;29;20581;-54
2023/12/07 01:26:58;;;;;;;16.92;6.45;;;;;;;-6.40;66.76;101371.63;4950554;29;20047;-55
2023/12/07 01:29:24;;;;;;;21.15;6.50;;;;;;;-6.35;67.16;101371.88;4950539;29;20035;-57
2023/12/07 01:31:50;;;;;;;17.15;7.05;;;;;;;-6.36;67.25;101376.06;4940621;29;20527;-58
2023/12/07 01:34:18;;;;;;;20.23;8.68;;;;;;;-6.34;66.83;101387.16;4951246;29;20806;-56
2023/12/07 01:36:44;;;;;;;20.80;7.45;;;;;;;-6.38;66.74;101386.91;4934925;29;20126;-55
2023/12/07 01:39:12;;;;;;;19.98;7.72;;;;;;;-6.45;67.14;101393.25;4951394;29;20534;-54
2023/12/07 01:41:42;;;;;;;14.88;6.40;;;;;;;-6.55;67.03;101388.41;4921251;29;20039;-57
2023/12/07 01:44:07;;;;;;;16.15;6.47;;;;;;;-6.67;66.86;101383.47;4930171;29;20626;-53
2023/12/07 01:46:34;;;;;;;16.25;6.53;;;;;;;-6.71;67.01;101383.19;4930711;29;20092;-54
2023/12/07 01:49:01;;;;;;;16.27;6.70;;;;;;;-6.64;66.86;101386.16;4952362;29;20039;-56
2023/12/07 01:51:27;;;;;;;19.85;7.30;;;;;;;-6.61;67.17;101400.66;4915361;29;20051;-57
2023/12/07 01:53:54;;;;;;;19.23;6.85;;;;;;;-6.86;66.85;101360.38;4934135;29;20038;-51
2023/12/07 01:56:20;;;;;;;17.42;6.68;;;;;;;-6.55;67.11;101404.47;4934468;29;20054;-56
2023/12/07 01:58:46;;;;;;;18.48;6.30;;;;;;;-6.49;67.04;101407.34;4935852;29;20046;-55
2023/12/07 02:01:12;;;;;;;19.58;7.15;;;;;;;-6.47;67.15;101403.25;4953614;28;20043;-56
2023/12/07 02:03:41;;;;;;;21.92;6.57;;;;;;;-6.65;67.17;101371.78;4951035;29;20043;-54
2023/12/07 02:06:11;;;;;;;16.58;6.95;;;;;;;-6.43;66.81;101405.19;4950521;28;20049;-56
2023/12/07 02:08:41;;;;;;;18.15;6.78;;;;;;;-6.47;66.83;101409.97;4932545;29;20051;-52
2023/12/07 02:11:10;;;;;;;15.20;5.70;;;;;;;-6.54;66.48;101410.38;4932115;29;20062;-54
2023/12/07 02:13:37;;;;;;;;;;;;;;;-6.60;66.55;101410.88;4918771;29;20142;-56
2023/12/07 02:16:21;;;;;;;14.07;5.60;;;;;;;-6.70;66.15;101422.88;4935172;29;19984;-55
2023/12/07 02:19:07;;;;;;;16.05;6.35;;;;;;;-6.63;66.86;101432.56;4935571;29;20138;-58
2023/12/07 02:21:41;;;;;;;18.02;6.22;;;;;;;-6.69;67.01;101420.41;4935341;29;20099;-56
2023/12/07 02:24:08;;;;;;;17.92;7.00;;;;;;;-6.87;67.16;101382.25;4926023;29;20047;-56
2023/12/07 02:26:38;;;;;;;19.10;7.53;;;;;;;-6.58;66.86;101428.66;4935943;29;20107;-57
2023/12/07 02:29:03;;;;;;;19.27;6.45;;;;;;;-6.53;66.83;101433.22;4938015;29;20475;-55
2023/12/07 02:31:29;;;;;;;21.85;7.30;;;;;;;-6.53;66.94;101439.94;4949855;28;20042;-56
2023/12/07 02:33:56;;;;;;;17.25;6.45;;;;;;;-6.61;66.55;101420.91;4923567;29;20501;-54
2023/12/07 02:36:24;;;;;;;21.27;7.05;;;;;;;-7.12;66.32;101345.22;4951727;28;20419;-57
2023/12/07 02:38:51;;;;;;;14.07;5.97;;;;;;;-6.69;67.09;101427.13;4949378;29;20065;-55
2023/12/07 02:41:20;;;;;;;18.65;6.45;;;;;;;-6.95;66.79;101398.56;4938944;28;20070;-56
2023/12/07 02:43:46;;;;;;;17.27;5.82;;;;;;;-6.81;66.66;101418.78;4949144;29;20066;-56
2023/12/07 02:46:13;;;;;;;15.07;5.80;;;;;;;-6.76;67.05;101435.13;4950022;29;20507;-56
2023/12/07 02:48:39;;;;;;;16.85;6.65;;;;;;;-6.88;66.81;101417.53;4905598;29;20050;-54
2023/12/07 02:51:05;;;;;;;18.60;7.03;;;;;;;-6.79;66.77;101435.78;4939725;28;20099;-57
2023/12/07 02:53:33;;;;;;;15.90;5.40;;;;;;;-6.78;67.12;101440.06;4936884;29;20123;-58
2023/12/07 02:56:00;;;;;;;15.68;6.53;;;;;;;-7.08;66.68;101385.94;4933085;29;20142;-55
2023/12/07 02:58:25;;;;;;;22.23;6.93;;;;;;;-7.31;67.03;101346.59;4935942;29;20035;-54
2023/12/07 03:00:53;;;;;;;18.58;7.07;;;;;;;-6.90;66.92;101430.06;4949545;29;20494;-58
2023/12/07 03:03:19;;;;;;;18.77;6.60;;;;;;;-6.90;66.90;101431.72;4952551;28;20043;-58
2023/12/07 03:05:45;;;;;;;14.38;6.38;;;;;;;-6.98;66.97;101412.69;4948756;29;20656;-54
2023/12/07 03:08:11;;;;;;;16.60;5.97;;;;;;;-6.91;67.00;101430.84;4936152;29;20511;-54
2023/12/07 03:10:37;;;;;;;24.02;7.88;;;;;;;-6.87;67.02;101453.03;4934498;29;20467;-57
2023/12/07 03:13:03;;;;;;;20.98;6.30;;;;;;;-6.84;66.96;101452.34;4951000;28;20050;-55
2023/12/07 03:15:29;;;;;;;14.77;6.57;;;;;;;-6.79;66.82;101457.66;4948818;28;20459;-54
2023/12/07 03:17:54;;;;;;;17.48;6.43;;;;;;;-6.76;66.81;101461.28;4947455;29;20090;-55
2023/12/07 03:20:21;;;;;;;16.52;5.95;;;;;;;-6.84;67.04;101444.75;4935319;29;20066;-57
2023/12/07 03:22:46;;;;;;;20.60;6.55;;;;;;;-6.75;67.11;101467.22;4937170;29;20071;-54
2023/12/07 03:25:12;;;;;;;12.63;5.13;;;;;;;-7.01;66.87;101418.41;4948665;29;20511;-57
2023/12/07 03:27:38;;;;;;;18.95;6.78;;;;;;;-6.73;66.96;101465.66;4934811;29;20039;-55
2023/12/07 03:30:05;;;;;;;14.68;5.55;;;;;;;-6.74;66.32;101472.34;4949371;29;20039;-56
2023/12/07 03:32:31;;;;;;;17.17;6.93;;;;;;;-6.94;66.59;101429.78;4933318;29;20062;-54
2023/12/07 03:34:57;;;;;;;17.00;6.40;;;;;;;-6.74;66.34;101464.78;4946579;29;20048;-56
2023/12/07 03:37:23;;;;;;;14.85;6.43;;;;;;;-6.79;66.16;101473.72;4934438;29;20423;-55
2023/12/07 03:39:49;;;;;;;15.32;5.93;;;;;;;-7.09;66.18;101432.22;4949843;29;20534;-53
2023/12/07 03:42:15;;;;;;;17.25;6.55;;;;;;;-6.87;66.40;101479.97;4947767;28;20043;-52
2023/12/07 03:44:41;;;;;;;14.85;6.28;;;;;;;-7.20;66.54;101427.25;4949365;28;20419;-58
2023/12/07 03:47:08;;;;;;;13.98;5.57;;;;;;;-7.20;66.66;101435.69;4935596;29;20051;-56
2023/12/07 03:49:34;;;;;;;14.52;5.93;;;;;;;-6.98;66.38;101491.91;4949661;29;20043;-58
2023/12/07 03:52:00;;;;;;;15.18;5.85;;;;;;;-7.28;66.11;101445.34;4934826;28;20110;-59
2023/12/07 03:54:27;;;;;;;13.35;5.95;;;;;;;-7.33;66.34;101438.22;4948586;29;20043;-54
2023/12/07 03:56:53;;;;;;;17.67;5.70;;;;;;;-7.33;66.19;101439.06;4935306;29;20043;-55
2023/12/07 03:59:19;;;;;;;19.90;6.97;;;;;;;-7.04;66.37;101488.97;4934864;29;20035;-57
2023/12/07 04:01:44;;;;;;;14.90;5.97;;;;;;;-7.04;66.83;101481.41;4935299;29;20047;-56
2023/12/07 04:04:10;;;;;;;19.73;6.20;;;;;;;-6.95;66.33;101481.97;4949214;28;20415;-58
2023/12/07 04:06:36;;;;;;;19.20;6.22;;;;;;;-6.93;66.26;101490.56;4933720;29;20432;-57
2023/12/07 04:09:04;;;;;;;20.50;7.38;;;;;;;-6.93;66.48;101497.25;4931502;29;20105;-53
2023/12/07 04:11:30;;;;;;;16.88;6.82;;;;;;;-6.89;66.58;101497.56;4947781;29;20054;-55
2023/12/07 04:13:56;;;;;;;17.10;6.38;;;;;;;-6.88;66.49;101499.31;4949028;28;20039;-54
2023/12/07 04:16:22;;;;;;;15.23;6.82;;;;;;;-6.96;66.35;101494.56;4946816;29;20058;-53
2023/12/07 04:18:48;;;;;;;16.88;6.03;;;;;;;-7.02;66.26;101494.16;4928659;29;20043;-56
2023/12/07 04:21:14;;;;;;;17.02;6.45;;;;;;;-7.00;66.33;101505.22;4930731;29;20051;-56
2023/12/07 04:23:40;;;;;;;19.92;6.00;;;;;;;-7.02;66.48;101489.97;4927399;29;20043;-51
2023/12/07 04:26:05;;;;;;;15.73;6.85;;;;;;;-6.99;66.43;101502.78;4933251;29;20502;-53
2023/12/07 04:28:31;;;;;;;16.38;6.05;;;;;;;-7.01;66.27;101501.81;4933586;29;20047;-52
2023/12/07 04:30:57;;;;;;;16.75;6.55;;;;;;;-7.04;66.12;101503.28;4931993;29;20527;-56
2023/12/07 04:33:23;;;;;;;10.93;4.68;;;;;;;-7.04;66.52;101509.22;4900646;29;20177;-54
2023/12/07 04:35:49;;;;;;;16.30;6.05;;;;;;;-7.02;66.42;101510.19;4946968;28;20043;-55
2023/12/07 04:38:15;;;;;;;14.82;5.90;;;;;;;-7.02;66.13;101505.13;4948860;28;20039;-57
2023/12/07 04:40:41;;;;;;;15.75;6.45;;;;;;;-7.17;66.35;101491.47;4935343;29;20051;-55
2023/12/07 04:43:07;;;;;;;18.80;7.13;;;;;;;-7.08;66.32;101503.84;4934834;28;20141;-59
2023/12/07 04:45:33;;;;;;;16.48;6.28;;;;;;;-7.29;66.49;101470.50;4946986;29;20162;-55
2023/12/07 04:48:00;;;;;;;26.60;5.93;;;;;;;-7.13;66.44;101501.03;4919910;29;20134;-54
2023/12/07 04:50:26;;;;;;;15.98;5.65;;;;;;;-7.07;66.26;101508.13;4945536;29;20050;-50
2023/12/07 04:52:52;;;;;;;15.20;5.70;;;;;;;-7.05;66.33;101507.44;4948362;28;20511;-53
2023/12/07 04:55:18;;;;;;;16.88;6.50;;;;;;;-7.05;66.44;101515.03;4950587;28;20134;-56
2023/12/07 04:57:44;;;;;;;16.63;6.00;;;;;;;-7.06;66.23;101513.28;4951312;29;20127;-57
2023/12/07 05:00:11;;;;;;;15.63;5.78;;;;;;;-7.09;66.51;101515.63;4950605;29;20053;-55
2023/12/07 05:02:37;;;;;;;15.70;5.80;;;;;;;-7.12;66.20;101515.44;4953257;28;20507;-54
2023/12/07 05:05:03;;;;;;;10.70;4.63;;;;;;;-7.13;66.66;101512.78;4925672;28;20077;-56
2023/12/07 05:07:31;;;;;;;14.88;6.47;;;;;;;-7.35;66.33;101475.13;4927709;29;20039;-57
2023/12/07 05:09:58;;;;;;;15.45;6.32;;;;;;;-7.33;66.24;101482.03;4927592;29;20053;-56
2023/12/07 05:12:24;;;;;;;15.07;5.72;;;;;;;-7.03;66.64;101532.84;4951281;29;20122;-54
2023/12/07 05:14:50;;;;;;;11.55;5.65;;;;;;;-7.00;66.65;101526.31;4941081;29;20050;-56
2023/12/07 05:17:16;;;;;;;13.00;5.85;;;;;;;-7.00;66.41;101538.94;4937958;29;20035;-53
2023/12/07 05:19:43;;;;;;;16.77;6.18;;;;;;;-7.24;66.10;101494.41;4949506;29;20047;-56
2023/12/07 05:22:09;;;;;;;20.65;7.63;;;;;;;-7.00;66.19;101528.84;4922225;29;20059;-57
2023/12/07 05:24:35;;;;;;;18.38;6.13;;;;;;;-7.25;66.37;101495.16;4953214;28;20062;-56
2023/12/07 05:27:03;;;;;;;18.30;7.07;;;;;;;-7.34;66.33;101482.81;4950373;29;20083;-53
2023/12/07 05:29:30;;;;;;;13.80;5.22;;;;;;;-6.99;66.31;101553.34;4935693;29;20035;-56
2023/12/07 05:31:56;;;;;;;17.40;6.18;;;;;;;-6.92;66.26;101550.47;4923245;29;20050;-58
2023/12/07 05:34:23;;;;;;;17.65;5.78;;;;;;;-6.96;66.31;101553.53;4950516;28;20149;-55
2023/12/07 05:36:49;;;;;;;13.00;5.40;;;;;;;-6.96;66.51;101557.75;4940266;29;20142;-55
2023/12/07 05:39:17;;;;;;;17.05;6.38;;;;;;;-6.94;66.29;101556.19;4949529;28;20127;-57
2023/12/07 05:41:44;;;;;;;17.92;5.82;;;;;;;-6.93;66.23;101551.22;4933421;29;20071;-57
2023/12/07 05:44:09;;;;;;;12.00;5.30;;;;;;;-6.97;66.18;101551.81;4935300;29;20050;-55
2023/12/07 05:46:36;;;;;;;15.27;5.97;;;;;;;-7.25;66.09;101502.75;4950428;28;20472;-58
2023/12/07 05:49:03;;;;;;;18.85;6.97;;;;;;;-6.96;66.25;101558.59;4953276;29;20043;-54
2023/12/07 05:51:28;;;;;;;18.02;6.45;;;;;;;-6.93;66.14;101563.00;4950485;28;20043;-58
2023/12/07 05:53:54;;;;;;;14.70;6.13;;;;;;;-6.97;66.15;101561.03;4941436;28;20054;-54
2023/12/07 05:56:20;;;;;;;17.58;7.30;;;;;;;-6.96;66.18;101562.81;4951846;28;20120;-56
2023/12/07 05:58:47;;;;;;;13.75;6.65;;;;;;;-7.21;65.99;101518.97;4948317;29;20051;-55
2023/12/07 06:01:17;;;;;;;15.98;5.88;;;;;;;-6.93;66.23;101570.56;4906346;29;20054;-56
2023/12/07 06:03:43;;;;;;;;;;;;;;;-6.91;66.03;101569.03;4950161;29;20055;-56
2023/12/07 06:06:10;;;;;;;17.55;5.50;;;;;;;-7.20;66.05;101524.13;4952867;28;20741;-59
2023/12/07 06:08:40;;;;;;;13.48;5.75;;;;;;;-6.94;65.69;101568.81;4950930;28;22021;-55
2023/12/07 06:11:06;;;;;;;16.35;6.05;;;;;;;-7.40;66.02;101499.22;4952302;28;20051;-56
2023/12/07 06:13:32;;;;;;;15.45;6.57;;;;;;;-6.91;65.95;101579.16;4939643;29;20046;-55
2023/12/07 06:15:59;;;;;;;16.52;6.57;;;;;;;-6.90;66.24;101578.34;4950632;28;20035;-58
2023/12/07 06:18:25;;;;;;;19.85;6.93;;;;;;;-6.85;65.89;101589.63;4940303;29;20039;-56
2023/12/07 06:20:51;;;;;;;21.73;6.38;;;;;;;-7.08;65.80;101531.66;4933982;29;20043;-57
2023/12/07 06:23:16;;;;;;;15.65;6.22;;;;;;;-6.79;65.53;101587.50;4950722;28;20582;-56
2023/12/07 06:25:42;;;;;;;17.52;6.55;;;;;;;-6.73;65.38;101585.38;4938338;28;20151;-55
2023/12/07 06:28:08;;;;;;;14.27;5.38;;;;;;;-6.66;65.41;101584.13;4934827;29;20043;-55
2023/12/07 06:30:34;;;;;;;15.90;6.00;;;;;;;-6.67;65.19;101578.19;4938283;29;20039;-55
2023/12/07 06:33:01;;;;;;;18.25;7.15;;;;;;;-6.59;65.09;101576.16;4921984;29;20039;-54
2023/12/07 06:35:27;;;;;;;19.60;6.90;;;;;;;-6.57;65.10;101569.53;4953018;28;20043;-54
2023/12/07 06:37:53;;;;;;;23.55;6.60;;;;;;;-6.38;64.85;101579.19;4936145;29;20050;-56
2023/12/07 06:40:21;;;;;;;21.88;7.85;;;;;;;-6.27;64.38;101594.25;4929758;29;20078;-56
2023/12/07 06:42:48;;;;;;;17.58;7.03;;;;;;;-6.26;64.33;101588.41;4942527;29;20047;-54
2023/12/07 06:45:14;;;;;;;16.73;7.30;;;;;;;-6.45;64.43;101543.38;4924326;29;20105;-52
2023/12/07 06:47:43;;;;;;;22.35;7.30;;;;;;;-6.16;64.24;101580.63;4924985;29;20051;-54
2023/12/07 06:50:10;;;;;;;14.55;6.20;;;;;;;-6.15;63.95;101577.31;4951375;29;20039;-54
2023/12/07 06:52:37;;;;;;;16.63;6.90;;;;;;;-6.48;64.13;101544.81;4949396;29;20043;-55
2023/12/07 06:55:04;;;;;;;22.20;7.20;;;;;;;-6.80;64.51;101504.84;4932075;29;20050;-53
2023/12/07 06:57:33;;;;;;;17.48;6.63;;;;;;;-6.37;64.32;101581.81;4933617;29;20141;-53
2023/12/07 07:00:01;;;;;;;17.95;6.78;;;;;;;-6.74;64.03;101522.94;4931975;29;20047;-54
2023/12/07 07:02:32;;;;;;;18.42;7.78;;;;;;;-6.42;64.74;101581.50;4948242;29;20046;-50
2023/12/07 07:04:58;;;;;;;21.33;7.65;;;;;;;-6.44;64.38;101580.53;4948064;28;20589;-54
2023/12/07 07:07:23;;;;;;;15.93;6.45;;;;;;;-6.47;64.45;101584.53;4914928;29;20039;-57
2023/12/07 07:09:50;;;;;;;16.98;6.38;;;;;;;-6.81;64.11;101546.09;4934383;28;20043;-50
2023/12/07 07:12:15;;;;;;;16.55;5.95;;;;;;;-6.54;64.24;101590.84;4949822;29;20053;-53
2023/12/07 07:14:42;;;;;;;17.00;6.05;;;;;;;-6.57;64.67;101592.31;4948761;29;20039;-54
2023/12/07 07:17:08;;;;;;;14.73;6.10;;;;;;;-6.54;64.03;101593.38;4931388;29;20055;-55
2023/12/07 07:19:33;;;;;;;13.85;5.78;;;;;;;-6.56;64.17;101591.53;4947701;29;20110;-54
2023/12/07 07:21:59;;;;;;;16.67;6.82;;;;;;;-6.54;63.70;101592.53;4925325;29;20414;-51
2023/12/07 07:24:25;;;;;;;12.98;5.97;;;;;;;-6.53;63.74;101596.78;4931495;29;20047;-56
2023/12/07 07:26:51;;;;;;;17.42;6.65;;;;;;;-6.76;63.76;101557.38;4929982;29;20047;-58
2023/12/07 07:29:17;;;;;;;15.18;6.28;;;;;;;-6.76;64.13;101551.44;4947673;29;20272;-53
2023/12/07 07:31:42;;;;;;;14.68;6.15;;;;;;;-6.31;63.65;101593.97;4947644;29;20090;-54
2023/12/07 07:34:08;;;;;;;22.13;6.75;;;;;;;-5.93;63.06;101598.91;4933059;29;20638;-54
2023/12/07 07:36:34;;;;;;;17.70;5.97;;;;;;;-5.63;62.56;101594.03;4932675;29;20039;-56
2023/12/07 07:39:00;;;;;;;20.70;6.72;;;;;;;-5.47;61.72;101600.03;4915876;29;20051;-54
2023/12/07 07:41:26;;;;;;;13.75;6.35;;;;;;;-5.41;61.67;101592.78;4915634;29;20117;-51
2023/12/07 07:43:51;;;;;;;16.95;5.75;;;;;;;-5.57;61.66;101574.13;4948228;28;20106;-54
2023/12/07 07:46:17;;;;;;;13.43;6.43;;;;;;;-5.62;61.88;101608.47;4932682;29;20443;-56
2023/12/07 07:48:44;;;;;;;16.35;6.55;;;;;;;-5.70;61.55;101601.16;4948223;29;20071;-51
2023/12/07 07:51:10;;;;;;;18.73;6.13;;;;;;;-5.82;61.87;101615.63;4930573;29;20049;-54
2023/12/07 07:53:36;;;;;;;16.55;6.80;;;;;;;-5.85;61.33;101613.75;4948709;29;20043;-53
2023/12/07 07:56:01;;;;;;;16.05;6.43;;;;;;;-5.88;62.29;101608.53;4944383;28;20043;-54
2023/12/07 07:58:28;;;;;;;17.55;6.45;;;;;;;-5.98;61.73;101607.88;4932698;29;20110;-56
2023/12/07 08:00:53;;;;;;;17.60;6.13;;;;;;;-5.95;61.79;101608.06;4929920;29;20531;-56
2023/12/07 08:03:19;;;;;;;22.17;6.68;;;;;;;-5.91;61.71;101610.03;4947814;29;20047;-54
2023/12/07 08:05:45;;;;;;;17.13;6.85;;;;;;;-6.21;61.55;101566.81;4947720;28;20046;-58
2023/12/07 08:08:11;;;;;;;18.42;6.25;;;;;;;-5.96;61.63;101619.84;4949914;28;20047;-56
2023/12/07 08:10:39;;;;;;;14.90;6.15;;;;;;;-5.93;60.94;101621.69;4931336;28;20130;-54
2023/12/07 08:13:05;;;;;;;18.73;7.45;;;;;;;-5.93;60.74;101614.97;4947734;29;20062;-55
2023/12/07 08:15:30;;;;;;;23.08;7.63;;;;;;;-6.20;60.75;101568.56;4913297;29;20528;-51
2023/12/07 08:17:56;;;;;;;16.85;6.70;;;;;;;-5.94;60.71;101618.28;4948579;28;20046;-53
2023/12/07 08:20:22;;;;;;;20.30;7.80;;;;;;;-5.72;60.89;101623.00;4929549;29;20516;-53
2023/12/07 08:22:48;;;;;;;20.02;7.20;;;;;;;-5.58;60.28;101614.56;4931462;29;20039;-55
2023/12/07 08:25:14;;;;;;;21.63;7.50;;;;;;;-5.29;60.32;101613.81;4930949;29;20043;-53
2023/12/07 08:27:40;;;;;;;18.33;6.88;;;;;;;-4.80;59.62;101576.97;4931911;29;20039;-56
2023/12/07 08:30:09;;;;;;;16.30;8.13;;;;;;;-4.59;58.84;101570.56;4947687;28;20039;-54
2023/12/07 08:32:36;;;;;;;21.80;8.25;;;;;;;-4.21;58.40;101615.88;4929496;29;20047;-53
2023/12/07 08:35:02;;;;;;;15.70;7.03;;;;;;;-4.44;58.66;101611.16;4925589;29;20134;-53
2023/12/07 08:37:29;;;;;;;18.15;7.05;;;;;;;-4.70;57.72;101615.63;4946421;28;20039;-55
2023/12/07 08:39:55;;;;;;;15.98;7.00;;;;;;;-4.94;58.49;101610.81;4930208;29;20144;-52
2023/12/07 08:42:21;;;;;;;17.85;6.90;;;;;;;-5.13;58.44;101609.72;4948126;28;20043;-58
2023/12/07 08:44:47;;;;;;;21.02;7.97;;;;;;;-5.20;59.07;101594.94;4949402;28;20051;-53
2023/12/07 08:47:13;;;;;;;18.00;7.68;;;;;;;-4.92;58.76;101604.19;4931414;29;20540;-52
2023/12/07 08:49:38;;;;;;;19.00;7.40;;;;;;;-4.70;57.99;101609.69;4948360;29;20126;-54
2023/12/07 08:52:06;;;;;;;20.52;8.85;;;;;;;-4.55;57.90;101576.72;4932323;29;20127;-54
2023/12/07 08:54:32;;;;;;;19.42;7.28;;;;;;;-4.49;57.18;101554.19;4917199;29;20501;-54
2023/12/07 08:56:58;;;;;;;24.80;9.80;;;;;;;-4.14;57.27;101596.78;4947956;28;20049;-56
2023/12/07 08:59:24;;;;;;;22.92;8.85;;;;;;;-4.30;56.66;101595.06;4948349;29;20046;-51
2023/12/07 09:01:50;;;;;;;23.58;8.82;;;;;;;-4.37;56.61;101603.13;4948504;29;20047;-53
2023/12/07 09:04:16;;;;;;;20.00;7.97;;;;;;;-4.34;56.51;101596.53;4926011;29;20089;-53
2023/12/07 09:06:42;;;;;;;17.83;7.78;;;;;;;-4.14;56.33;101591.72;4932339;29;20185;-54
2023/12/07 09:09:08;;;;;;;20.88;9.13;;;;;;;-4.01;56.14;101596.66;4932911;29;20043;-57
2023/12/07 09:11:34;;;;;;;26.65;8.30;;;;;;;-3.97;55.86;101593.47;4932938;29;20039;-52
2023/12/07 09:14:00;;;;;;;18.23;6.97;;;;;;;-3.87;56.08;101594.06;4932435;29;20050;-53
2023/12/07 09:16:26;;;;;;;18.88;7.80;;;;;;;-3.82;55.69;101601.09;4941565;29;20099;-59
2023/12/07 09:18:52;;;;;;;18.67;7.13;;;;;;;-4.11;55.77;101547.03;4943664;28;20458;-56
2023/12/07 09:21:22;;;;;;;20.88;8.25;;;;;;;-4.20;55.53;101558.34;4949934;28;20141;-56
2023/12/07 09:23:48;;;;;;;;;;;;;;;-4.02;55.86;101593.22;4903199;29;20035;-57
2023/12/07 09:26:14;;;;;;;15.07;6.38;;;;;;;-4.08;55.49;101585.28;4947058;29;19926;-57
2023/12/07 09:28:40;;;;;;;16.65;6.65;;;;;;;-4.51;55.45;101538.03;4931904;29;20504;-56
2023/12/07 09:31:06;;;;;;;20.80;7.55;;;;;;;-4.20;55.22;101597.31;4932109;29;20046;-57
2023/12/07 09:33:31;;;;;;;17.80;7.40;;;;;;;-4.14;55.03;101599.31;4946630;29;20043;-52
2023/12/07 09:35:58;;;;;;;17.13;6.60;;;;;;;-4.17;55.52;101594.94;4930162;29;20074;-52
2023/12/07 09:38:23;;;;;;;16.80;7.40;;;;;;;-4.24;55.43;101600.50;4930705;29;20512;-49
2023/12/07 09:40:53;;;;;;;14.80;6.18;;;;;;;-4.16;55.37;101596.69;4914511;29;20048;-54
2023/12/07 09:43:19;;;;;;;;;;;;;;;-3.97;55.18;101593.47;4935313;29;20529;-53
2023/12/07 09:45:45;;;;;;;17.80;7.22;;;;;;;-3.92;54.70;101586.97;4951770;29;19918;-57
2023/12/07 09:48:11;;;;;;;13.25;6.00;;;;;;;-3.93;54.94;101592.88;4935209;28;20473;-55
2023/12/07 09:50:37;;;;;;;16.60;6.82;;;;;;;-3.91;54.54;101584.53;4932795;29;20122;-54
2023/12/07 09:53:03;;;;;;;16.88;7.28;;;;;;;-3.87;54.91;101585.56;4919802;29;20048;-54
2023/12/07 09:55:30;;;;;;;14.63;6.13;;;;;;;-3.80;54.64;101585.09;4951528;29;20085;-54
2023/12/07 09:57:58;;;;;;;18.00;6.68;;;;;;;-3.78;54.11;101588.63;4915989;28;20082;-53
2023/12/07 10:00:24;;;;;;;13.52;6.40;;;;;;;-3.73;54.08;101591.41;4946908;29;20471;-51
2023/12/07 10:02:50;;;;;;;15.07;6.15;;;;;;;-3.67;54.22;101592.59;4916153;29;20051;-54
2023/12/07 10:05:16;;;;;;;15.88;5.90;;;;;;;-3.70;53.48;101589.00;4903240;29;20510;-51
2023/12/07 10:07:46;;;;;;;19.25;6.82;;;;;;;-3.77;53.68;101585.28;4934417;28;20050;-51
2023/12/07 10:10:12;;;;;;;15.35;6.30;;;;;;;-3.92;53.97;101587.84;4933815;29;20035;-52
2023/12/07 10:12:47;;;;;;;16.65;6.70;;;;;;;-4.08;53.84;101592.91;4933523;28;20874;-52
2023/12/07 10:15:15;;;;;;;18.05;6.20;;;;;;;-4.46;54.24;101545.09;4950918;28;20046;-53
2023/12/07 10:17:49;;;;;;;15.80;6.07;;;;;;;-4.29;54.08;101584.97;4933533;29;20043;-56
2023/12/07 10:20:16;;;;;;;16.83;5.85;;;;;;;-4.44;54.83;101585.78;4933259;29;20070;-56
2023/12/07 10:22:42;;;;;;;15.50;6.85;;;;;;;-4.46;54.16;101590.78;4934372;29;20047;-56
2023/12/07 10:25:09;;;;;;;14.85;5.88;;;;;;;-4.37;54.91;101595.50;4934060;29;20483;-57
2023/12/07 10:27:35;;;;;;;12.48;5.50;;;;;;;-4.43;54.33;101597.69;4933352;29;20599;-56
2023/12/07 10:30:01;;;;;;;17.17;7.13;;;;;;;-4.70;54.83;101556.41;4933827;29;20043;-52
2023/12/07 10:32:30;;;;;;;19.13;7.03;;;;;;;-4.49;54.97;101595.69;4949042;28;20043;-56
2023/12/07 10:34:58;;;;;;;19.33;6.85;;;;;;;-4.52;54.49;101592.09;4913077;29;20126;-54
2023/12/07 10:37:24;;;;;;;19.00;7.03;;;;;;;-4.58;54.91;101605.31;4914914;29;20099;-56
2023/12/07 10:39:50;;;;;;;14.38;5.72;;;;;;;-4.59;54.66;101587.47;4950654;28;20055;-59
2023/12/07 10:42:16;;;;;;;16.30;6.70;;;;;;;-3.93;53.84;101595.41;4950218;29;20043;-56
2023/12/07 10:44:45;;;;;;;17.95;6.45;;;;;;;-3.28;53.54;101595.47;4925309;29;20130;-55
2023/12/07 10:47:11;;;;;;;14.65;7.18;;;;;;;-2.66;52.67;101596.09;4935143;29;20125;-58
2023/12/07 10:49:40;;;;;;;17.25;6.60;;;;;;;-2.77;52.22;101529.38;4950158;29;20482;-55
2023/12/07 10:52:12;;;;;;;18.33;6.97;;;;;;;-2.86;51.65;101596.78;4940410;29;20055;-55
2023/12/07 10:54:45;;;;;;;16.15;6.75;;;;;;;-3.47;52.35;101573.31;4945954;29;20522;-57
2023/12/07 10:57:13;;;;;;;14.95;7.63;;;;;;;-3.32;52.67;101593.56;4916934;29;20546;-54
2023/12/07 10:59:42;;;;;;;25.10;7.57;;;;;;;-2.95;52.02;101606.50;4949608;28;20042;-55
2023/12/07 11:02:10;;;;;;;17.58;6.93;;;;;;;-3.35;52.19;101601.94;4945023;29;20547;-56
2023/12/07 11:04:36;;;;;;;21.25;7.10;;;;;;;-4.14;52.46;101528.22;4925980;29;20570;-55
2023/12/07 11:07:07;;;;;;;19.42;6.75;;;;;;;-4.20;53.18;101564.31;4931396;29;20036;-57
2023/12/07 11:09:35;;;;;;;17.95;7.43;;;;;;;-4.24;53.99;101609.78;4950062;28;20078;-58
2023/12/07 11:12:07;;;;;;;15.20;6.72;;;;;;;-4.42;54.31;101607.94;4916307;29;20047;-56
2023/12/07 11:14:33;;;;;;;20.33;7.78;;;;;;;-4.61;53.99;101607.69;4933837;29;20610;-56
2023/12/07 11:16:59;;;;;;;18.33;6.65;;;;;;;-5.04;54.42;101575.56;4949664;29;20046;-57